Terrace, Canada
Current Conditions -  °F | °C
As of 6:00 AM on Saturday 01 Nov 2014 (Local Time) from CYXT Reporting Station
Haze Haze  
Wind Chill: 35°   Ceiling: 300
Heat Index: 39°   Visibility: 3mi
Dew Point: 37°   Wind: 6mph
Humidity: 93%   Direction: 100°E
Pressure: 29.8"   Gusts: NA
Location:  54.52°N, 128.6°W
Report Text: CYXT 011300Z 10005KT 3SM BR BKN003 BKN050 OVC150 04/03 A2980 RMK SF5SC1AC2 SLP098
Loading
Personal Weather Stations






























Interactive Weather Map
Tropical Storm Tracking
New forecast layout! Learn more

10-Day Weather Forecast

Advertisements
Track Severe Weather on mobile